createdAt,value
2018-01-22T00:00:56.543Z,1012.99
2018-01-22T00:01:56.533Z,1012.94
2018-01-22T00:02:56.523Z,1012.88
2018-01-22T00:03:56.516Z,1012.82
2018-01-22T00:04:56.505Z,1012.77
2018-01-22T00:05:56.495Z,1012.76
2018-01-22T00:06:56.484Z,1012.77
2018-01-22T00:07:56.477Z,1012.78
2018-01-22T00:08:56.469Z,1012.72
2018-01-22T00:09:56.458Z,1012.73
2018-01-22T00:10:56.445Z,1012.74
2018-01-22T00:11:56.450Z,1012.72
2018-01-22T00:12:56.431Z,1012.70
2018-01-22T00:13:56.421Z,1012.64
2018-01-22T00:14:56.412Z,1012.66
2018-01-22T00:15:56.401Z,1012.68
2018-01-22T00:16:56.393Z,1012.68
2018-01-22T00:17:56.387Z,1012.64
2018-01-22T00:18:56.376Z,1012.65
2018-01-22T00:19:56.364Z,1012.61
2018-01-22T00:20:56.356Z,1012.59
2018-01-22T00:21:56.347Z,1012.60
2018-01-22T00:22:56.337Z,1012.56
2018-01-22T00:23:56.326Z,1012.59
2018-01-22T00:24:56.316Z,1012.61
2018-01-22T00:25:56.312Z,1012.57
2018-01-22T00:26:56.300Z,1012.53
2018-01-22T00:27:56.291Z,1012.53
2018-01-22T00:28:56.288Z,1012.52
2018-01-22T00:29:56.270Z,1012.55
2018-01-22T00:30:56.264Z,1012.52
2018-01-22T00:31:56.255Z,1012.55
2018-01-22T00:32:56.245Z,1012.53
2018-01-22T00:33:56.235Z,1012.49
2018-01-22T00:34:56.228Z,1012.52
2018-01-22T00:35:56.217Z,1012.47
2018-01-22T00:36:56.209Z,1012.45
2018-01-22T00:37:56.197Z,1012.40
2018-01-22T00:38:56.190Z,1012.44
2018-01-22T00:39:56.179Z,1012.45
2018-01-22T00:40:56.172Z,1012.42
2018-01-22T00:41:56.162Z,1012.40
2018-01-22T00:42:56.152Z,1012.35
2018-01-22T00:43:56.143Z,1012.35
2018-01-22T00:44:56.135Z,1012.30
2018-01-22T00:45:56.124Z,1012.31
2018-01-22T00:46:56.117Z,1012.30
2018-01-22T00:47:56.106Z,1012.34
2018-01-22T00:48:56.098Z,1012.34
2018-01-22T00:49:56.088Z,1012.33
2018-01-22T00:50:56.077Z,1012.33
2018-01-22T00:51:56.072Z,1012.29
2018-01-22T00:52:56.060Z,1012.26
2018-01-22T00:53:56.049Z,1012.23
2018-01-22T00:54:56.040Z,1012.23
2018-01-22T00:55:56.033Z,1012.24
2018-01-22T00:56:56.024Z,1012.25
2018-01-22T00:57:56.009Z,1012.27
2018-01-22T00:58:56.005Z,1012.25
2018-01-22T00:59:55.998Z,1012.23
2018-01-22T01:00:55.983Z,1012.24
2018-01-22T01:01:55.974Z,1012.20
2018-01-22T01:02:55.964Z,1012.18
2018-01-22T01:03:55.957Z,1012.19
2018-01-22T01:04:55.949Z,1012.11
2018-01-22T01:05:55.938Z,1012.09
2018-01-22T01:06:55.930Z,1012.08
2018-01-22T01:07:55.921Z,1012.09
2018-01-22T01:08:55.911Z,1012.01
2018-01-22T01:09:55.900Z,1012.02
2018-01-22T01:10:55.896Z,1012.04
2018-01-22T01:11:55.882Z,1012.03
2018-01-22T01:12:55.872Z,1011.97
2018-01-22T01:13:55.865Z,1011.90
2018-01-22T01:14:55.856Z,1011.89
2018-01-22T01:15:55.848Z,1011.88
2018-01-22T01:16:55.837Z,1011.82
2018-01-22T01:17:55.825Z,1011.81
2018-01-22T01:18:55.818Z,1011.85
2018-01-22T01:19:55.810Z,1011.85
2018-01-22T01:20:55.799Z,1011.82
2018-01-22T01:21:55.791Z,1011.78
2018-01-22T01:22:55.781Z,1011.82
2018-01-22T01:23:55.773Z,1011.79
2018-01-22T01:24:55.764Z,1011.79
2018-01-22T01:25:55.752Z,1011.78
2018-01-22T01:26:55.743Z,1011.76
2018-01-22T01:27:55.731Z,1011.79
2018-01-22T01:28:55.724Z,1011.75
2018-01-22T01:29:55.715Z,1011.73
2018-01-22T01:30:55.707Z,1011.80
2018-01-22T01:31:55.699Z,1011.82
2018-01-22T01:32:55.690Z,1011.84
2018-01-22T01:33:55.678Z,1011.83
2018-01-22T01:34:55.672Z,1011.79
2018-01-22T01:35:55.659Z,1011.79
2018-01-22T01:36:55.651Z,1011.75
2018-01-22T01:37:55.640Z,1011.73
2018-01-22T01:38:55.635Z,1011.73
2018-01-22T01:39:55.624Z,1011.79
2018-01-22T01:40:55.611Z,1011.72
2018-01-22T01:41:55.605Z,1011.68
2018-01-22T01:42:55.596Z,1011.66
2018-01-22T01:43:55.584Z,1011.65
2018-01-22T01:44:55.576Z,1011.59
2018-01-22T01:45:55.564Z,1011.58
2018-01-22T01:46:55.558Z,1011.60
2018-01-22T01:47:55.549Z,1011.62
2018-01-22T01:48:55.537Z,1011.58
2018-01-22T01:49:55.529Z,1011.55
2018-01-22T01:50:55.518Z,1011.56
2018-01-22T01:51:55.515Z,1011.53
2018-01-22T01:52:55.503Z,1011.55
2018-01-22T01:53:55.492Z,1011.53
2018-01-22T01:54:55.483Z,1011.52
2018-01-22T01:55:55.474Z,1011.50
2018-01-22T01:56:55.464Z,1011.48
2018-01-22T01:57:55.470Z,1011.44
2018-01-22T01:58:55.446Z,1011.39
2018-01-22T01:59:55.436Z,1011.42
2018-01-22T02:00:55.428Z,1011.40
2018-01-22T02:01:55.416Z,1011.40
2018-01-22T02:02:55.409Z,1011.35
2018-01-22T02:03:55.401Z,1011.39
2018-01-22T02:04:55.390Z,1011.34
2018-01-22T02:05:55.381Z,1011.33
2018-01-22T02:06:55.371Z,1011.30
2018-01-22T02:07:55.366Z,1011.31
2018-01-22T02:08:55.351Z,1011.32
2018-01-22T02:09:55.343Z,1011.25
2018-01-22T02:10:55.334Z,1011.24
2018-01-22T02:11:55.325Z,1011.22
2018-01-22T02:12:55.317Z,1011.16
2018-01-22T02:13:55.303Z,1011.10
2018-01-22T02:14:55.297Z,1011.07
2018-01-22T02:15:55.288Z,1011.08
2018-01-22T02:16:55.281Z,1011.03
2018-01-22T02:17:55.270Z,1011.02
2018-01-22T02:18:55.257Z,1011.05
2018-01-22T02:19:55.249Z,1011.03
2018-01-22T02:20:55.242Z,1011.04
2018-01-22T02:21:55.230Z,1011.05
2018-01-22T02:22:55.221Z,1011.05
2018-01-22T02:23:55.210Z,1011.09
2018-01-22T02:24:55.207Z,1011.04
2018-01-22T02:25:55.191Z,1011.06
2018-01-22T02:26:55.183Z,1011.03
2018-01-22T02:27:55.174Z,1011.01
2018-01-22T02:28:55.165Z,1010.96
2018-01-22T02:29:55.150Z,1010.95
2018-01-22T02:30:55.147Z,1010.94
2018-01-22T02:31:55.136Z,1010.96
2018-01-22T02:32:55.129Z,1010.93
2018-01-22T02:33:55.118Z,1010.91
2018-01-22T02:34:55.109Z,1010.84
2018-01-22T02:35:55.099Z,1010.87
2018-01-22T02:36:55.088Z,1010.88
2018-01-22T02:37:55.080Z,1010.82
2018-01-22T02:38:55.074Z,1010.81
2018-01-22T02:39:55.062Z,1010.81
2018-01-22T02:40:55.061Z,1010.81
2018-01-22T02:41:55.042Z,1010.81
2018-01-22T02:42:55.033Z,1010.76
2018-01-22T02:43:55.024Z,1010.75
2018-01-22T02:44:55.013Z,1010.72
2018-01-22T02:45:55.007Z,1010.73
2018-01-22T02:46:54.996Z,1010.72
2018-01-22T02:47:54.987Z,1010.70
2018-01-22T02:48:54.977Z,1010.73
2018-01-22T02:49:54.968Z,1010.75
2018-01-22T02:50:54.959Z,1010.68
2018-01-22T02:51:54.951Z,1010.67
2018-01-22T02:52:54.940Z,1010.66
2018-01-22T02:53:54.936Z,1010.61
2018-01-22T02:54:54.922Z,1010.60
2018-01-22T02:55:54.913Z,1010.59
2018-01-22T02:56:54.903Z,1010.56
2018-01-22T02:57:54.893Z,1010.52
2018-01-22T02:58:54.884Z,1010.55
2018-01-22T02:59:54.874Z,1010.55
2018-01-22T03:00:54.865Z,1010.53
2018-01-22T03:01:54.856Z,1010.52
2018-01-22T03:02:54.848Z,1010.52
2018-01-22T03:03:54.837Z,1010.49
2018-01-22T03:04:54.826Z,1010.50
2018-01-22T03:05:54.820Z,1010.50
2018-01-22T03:06:54.810Z,1010.49
2018-01-22T03:07:54.798Z,1010.44
2018-01-22T03:08:54.792Z,1010.43
2018-01-22T03:09:54.780Z,1010.43
2018-01-22T03:10:54.771Z,1010.39
2018-01-22T03:11:54.761Z,1010.37
2018-01-22T03:12:54.753Z,1010.41
2018-01-22T03:13:54.742Z,1010.40
2018-01-22T03:14:54.733Z,1010.42
2018-01-22T03:15:54.726Z,1010.40
2018-01-22T03:16:54.744Z,1010.37
2018-01-22T03:17:54.703Z,1010.40
2018-01-22T03:18:54.696Z,1010.41
2018-01-22T03:19:54.687Z,1010.41
2018-01-22T03:20:54.676Z,1010.42
2018-01-22T03:21:54.667Z,1010.50
2018-01-22T03:22:54.667Z,1010.42
2018-01-22T03:23:54.650Z,1010.43
2018-01-22T03:24:54.640Z,1010.44
2018-01-22T03:25:54.630Z,1010.47
2018-01-22T03:26:54.623Z,1010.45
2018-01-22T03:27:54.611Z,1010.42
2018-01-22T03:28:54.604Z,1010.45
2018-01-22T03:29:54.601Z,1010.40
2018-01-22T03:30:54.585Z,1010.47
2018-01-22T03:31:54.575Z,1010.48
2018-01-22T03:32:54.564Z,1010.48
2018-01-22T03:33:54.555Z,1010.52
2018-01-22T03:34:54.545Z,1010.46
2018-01-22T03:35:54.539Z,1010.41
2018-01-22T03:36:54.528Z,1010.40
2018-01-22T03:37:54.520Z,1010.39
2018-01-22T03:38:54.508Z,1010.37
2018-01-22T03:39:54.499Z,1010.36
2018-01-22T03:40:54.489Z,1010.38
2018-01-22T03:41:54.479Z,1010.39
2018-01-22T03:42:54.473Z,1010.37
2018-01-22T03:43:54.463Z,1010.38
2018-01-22T03:44:54.453Z,1010.34
2018-01-22T03:45:54.442Z,1010.31
2018-01-22T03:46:54.434Z,1010.29
2018-01-22T03:47:54.425Z,1010.27
2018-01-22T03:48:54.416Z,1010.28
2018-01-22T03:49:54.404Z,1010.25
2018-01-22T03:50:54.396Z,1010.21
2018-01-22T03:51:54.387Z,1010.23
2018-01-22T03:52:54.380Z,1010.23
2018-01-22T03:53:54.364Z,1010.18
2018-01-22T03:54:54.362Z,1010.15
2018-01-22T03:55:54.348Z,1010.13
2018-01-22T03:56:54.340Z,1010.16
2018-01-22T03:57:54.330Z,1010.12
2018-01-22T03:58:54.321Z,1010.08
2018-01-22T03:59:54.311Z,1010.08
2018-01-22T04:00:54.304Z,1010.09
2018-01-22T04:01:54.292Z,1010.08
2018-01-22T04:02:54.317Z,1010.08
2018-01-22T04:03:54.271Z,1010.07
2018-01-22T04:04:54.266Z,1010.08
2018-01-22T04:05:54.256Z,1010.05
2018-01-22T04:06:54.243Z,1010.05
2018-01-22T04:07:54.237Z,1010.09
2018-01-22T04:08:54.228Z,1010.05
2018-01-22T04:09:54.216Z,1010.09
2018-01-22T04:10:54.212Z,1010.05
2018-01-22T04:11:54.198Z,1009.99
2018-01-22T04:12:54.190Z,1010.03
2018-01-22T04:13:54.178Z,1010.01
2018-01-22T04:14:54.171Z,1009.99
2018-01-22T04:15:54.161Z,1010.01
2018-01-22T04:16:54.151Z,1009.99
2018-01-22T04:17:54.144Z,1010.02
2018-01-22T04:18:54.134Z,1009.98
2018-01-22T04:19:54.123Z,1009.91
2018-01-22T04:20:54.115Z,1009.94
2018-01-22T04:21:54.105Z,1009.97
2018-01-22T04:22:54.096Z,1009.95
2018-01-22T04:23:54.086Z,1009.94
2018-01-22T04:24:54.077Z,1009.98
2018-01-22T04:25:54.066Z,1009.94
2018-01-22T04:26:54.056Z,1009.90
2018-01-22T04:27:54.048Z,1009.91
2018-01-22T04:28:54.041Z,1009.93
2018-01-22T04:29:54.029Z,1009.86
2018-01-22T04:30:54.020Z,1009.84
2018-01-22T04:31:54.009Z,1009.82
2018-01-22T04:32:54.001Z,1009.81
2018-01-22T04:33:53.991Z,1009.79
2018-01-22T04:34:53.980Z,1009.79
2018-01-22T04:35:53.973Z,1009.76
2018-01-22T04:36:53.965Z,1009.70
2018-01-22T04:37:53.951Z,1009.69
2018-01-22T04:38:53.944Z,1009.70
2018-01-22T04:39:53.936Z,1009.68
2018-01-22T04:40:53.926Z,1009.67
2018-01-22T04:41:53.916Z,1009.63
2018-01-22T04:42:53.908Z,1009.57
2018-01-22T04:43:53.898Z,1009.51
2018-01-22T04:44:53.888Z,1009.51
2018-01-22T04:45:53.878Z,1009.45
2018-01-22T04:46:53.869Z,1009.47
2018-01-22T04:47:53.861Z,1009.50
2018-01-22T04:48:53.859Z,1009.56
2018-01-22T04:49:53.840Z,1009.52
2018-01-22T04:50:53.833Z,1009.48
2018-01-22T04:51:53.830Z,1009.46
2018-01-22T04:52:53.813Z,1009.45
2018-01-22T04:53:53.804Z,1009.41
2018-01-22T04:54:53.794Z,1009.39
2018-01-22T04:55:53.786Z,1009.31
2018-01-22T04:56:53.775Z,1009.32
2018-01-22T04:57:53.765Z,1009.31
2018-01-22T04:58:53.756Z,1009.26
2018-01-22T04:59:53.747Z,1009.25
2018-01-22T05:00:53.737Z,1009.26
2018-01-22T05:01:53.728Z,1009.25
2018-01-22T05:02:53.719Z,1009.20
2018-01-22T05:03:53.710Z,1009.23
2018-01-22T05:04:53.701Z,1009.22
2018-01-22T05:05:53.689Z,1009.10
2018-01-22T05:06:53.681Z,1009.11
2018-01-22T05:07:53.670Z,1009.10
2018-01-22T05:08:53.664Z,1009.09
2018-01-22T05:09:53.650Z,1009.10
2018-01-22T05:10:53.649Z,1009.00
2018-01-22T05:11:53.641Z,1009.07
2018-01-22T05:12:53.624Z,1009.08
2018-01-22T05:13:53.613Z,1009.03
2018-01-22T05:14:53.605Z,1009.00
2018-01-22T05:15:53.597Z,1008.98
2018-01-22T05:16:53.586Z,1008.95
2018-01-22T05:17:53.578Z,1008.96
2018-01-22T05:18:53.566Z,1008.90
2018-01-22T05:19:53.557Z,1008.93
2018-01-22T05:20:53.549Z,1008.91
2018-01-22T05:21:53.539Z,1008.88
2018-01-22T05:22:53.530Z,1008.85
2018-01-22T05:23:53.520Z,1008.89
2018-01-22T05:24:53.512Z,1008.85
2018-01-22T05:25:53.500Z,1008.85
2018-01-22T05:26:53.490Z,1008.88
2018-01-22T05:27:53.483Z,1008.88
2018-01-22T05:28:53.471Z,1008.94
2018-01-22T05:29:53.463Z,1008.92
2018-01-22T05:30:53.453Z,1008.91
2018-01-22T05:31:53.443Z,1008.93
2018-01-22T05:32:53.433Z,1008.87
2018-01-22T05:33:53.421Z,1008.88
2018-01-22T05:34:53.412Z,1008.87
2018-01-22T05:35:53.404Z,1008.84
2018-01-22T05:36:53.394Z,1008.87
2018-01-22T05:37:53.384Z,1008.84
2018-01-22T05:38:53.374Z,1008.86
2018-01-22T05:39:53.366Z,1008.84
2018-01-22T05:40:53.355Z,1008.84
2018-01-22T05:41:53.345Z,1008.82
2018-01-22T05:42:53.337Z,1008.89
2018-01-22T05:43:53.329Z,1008.89
2018-01-22T05:44:53.318Z,1008.90
2018-01-22T05:45:53.307Z,1008.93
2018-01-22T05:46:53.298Z,1008.94
2018-01-22T05:47:53.287Z,1008.93
2018-01-22T05:48:53.275Z,1008.95
2018-01-22T05:49:53.268Z,1008.98
2018-01-22T05:50:53.259Z,1008.97
2018-01-22T05:51:53.250Z,1008.97
2018-01-22T05:52:53.243Z,1008.92
2018-01-22T05:53:53.227Z,1008.91
2018-01-22T05:54:53.220Z,1008.89
2018-01-22T05:55:53.213Z,1008.80
2018-01-22T05:56:53.201Z,1008.84
2018-01-22T05:57:53.188Z,1008.82
2018-01-22T05:58:53.181Z,1008.78
2018-01-22T05:59:53.174Z,1008.74
2018-01-22T06:00:53.162Z,1008.75
2018-01-22T06:01:53.153Z,1008.78
2018-01-22T06:02:53.145Z,1008.69
2018-01-22T06:03:53.133Z,1008.67
2018-01-22T06:04:53.126Z,1008.69
2018-01-22T06:05:53.114Z,1008.66
2018-01-22T06:06:53.104Z,1008.66
2018-01-22T06:07:53.095Z,1008.64
2018-01-22T06:08:53.086Z,1008.60
2018-01-22T06:09:53.078Z,1008.60
2018-01-22T06:10:53.067Z,1008.64
2018-01-22T06:11:53.058Z,1008.63
2018-01-22T06:12:53.047Z,1008.61
2018-01-22T06:13:53.038Z,1008.60
2018-01-22T06:14:53.028Z,1008.57
2018-01-22T06:15:53.018Z,1008.57
2018-01-22T06:16:53.009Z,1008.52
2018-01-22T06:17:53.001Z,1008.54
2018-01-22T06:18:52.990Z,1008.52
2018-01-22T06:19:52.982Z,1008.48
2018-01-22T06:20:52.975Z,1008.47
2018-01-22T06:21:52.960Z,1008.43
2018-01-22T06:22:52.952Z,1008.38
2018-01-22T06:23:52.942Z,1008.36
2018-01-22T06:24:52.933Z,1008.35
2018-01-22T06:25:52.924Z,1008.35
2018-01-22T06:26:52.921Z,1008.37
2018-01-22T06:27:52.906Z,1008.36
2018-01-22T06:28:52.896Z,1008.28
2018-01-22T06:29:52.885Z,1008.23
2018-01-22T06:30:52.880Z,1008.17
2018-01-22T06:31:52.868Z,1008.13
2018-01-22T06:32:52.858Z,1008.12
2018-01-22T06:33:52.847Z,1008.12
2018-01-22T06:34:52.836Z,1008.17
2018-01-22T06:35:52.834Z,1008.22
2018-01-22T06:36:52.818Z,1008.22
2018-01-22T06:37:52.806Z,1008.21
2018-01-22T06:38:52.801Z,1008.20
2018-01-22T06:39:52.790Z,1008.20
2018-01-22T06:40:52.780Z,1008.15
2018-01-22T06:41:52.772Z,1008.07
2018-01-22T06:42:52.762Z,1008.08
2018-01-22T06:43:52.755Z,1008.12
2018-01-22T06:44:52.743Z,1008.14
2018-01-22T06:45:52.737Z,1008.17
2018-01-22T06:46:52.725Z,1008.13
2018-01-22T06:47:52.713Z,1008.10
2018-01-22T06:48:52.708Z,1008.05
2018-01-22T06:49:52.695Z,1008.04
2018-01-22T06:50:52.684Z,1008.02
2018-01-22T06:51:52.677Z,1008.00
2018-01-22T06:52:52.673Z,1007.99
2018-01-22T06:53:52.662Z,1008.02
2018-01-22T06:54:52.648Z,1008.03
2018-01-22T06:55:52.643Z,1008.05
2018-01-22T06:56:52.630Z,1008.01
2018-01-22T06:57:52.618Z,1008.11
2018-01-22T06:58:52.608Z,1008.09
2018-01-22T06:59:52.598Z,1008.09
2018-01-22T07:00:52.590Z,1008.05
2018-01-22T07:01:52.578Z,1008.07
2018-01-22T07:02:52.568Z,1008.07
2018-01-22T07:03:52.560Z,1008.06
2018-01-22T07:04:52.586Z,1008.09
2018-01-22T07:05:52.541Z,1008.09
2018-01-22T07:06:52.534Z,1008.10
2018-01-22T07:07:52.521Z,1008.09
2018-01-22T07:08:52.521Z,1008.06
2018-01-22T07:09:52.502Z,1008.06
2018-01-22T07:10:52.495Z,1008.02
2018-01-22T07:11:52.485Z,1008.05
2018-01-22T07:12:52.475Z,1008.07
2018-01-22T07:13:52.463Z,1008.07
2018-01-22T07:14:52.461Z,1008.18
2018-01-22T07:15:52.444Z,1008.22
2018-01-22T07:16:52.435Z,1008.23
2018-01-22T07:17:52.428Z,1008.27
2018-01-22T07:18:52.415Z,1008.25
2018-01-22T07:19:52.406Z,1008.24
2018-01-22T07:20:52.395Z,1008.25
2018-01-22T07:21:52.391Z,1008.30
2018-01-22T07:22:52.402Z,1008.29
2018-01-22T07:23:52.374Z,1008.38
2018-01-22T07:24:52.357Z,1008.43
2018-01-22T07:25:52.349Z,1008.49
2018-01-22T07:26:52.340Z,1008.49
2018-01-22T07:27:52.328Z,1008.49
2018-01-22T07:28:52.318Z,1008.48
2018-01-22T07:29:52.311Z,1008.45
2018-01-22T07:30:52.314Z,1008.44
2018-01-22T07:31:52.291Z,1008.40
2018-01-22T07:32:52.281Z,1008.35
2018-01-22T07:33:52.271Z,1008.30
2018-01-22T07:34:52.261Z,1008.34
2018-01-22T07:35:52.252Z,1008.33
2018-01-22T07:36:52.242Z,1008.36
2018-01-22T07:37:52.233Z,1008.43
2018-01-22T07:38:52.227Z,1008.45
2018-01-22T07:39:52.215Z,1008.46
2018-01-22T07:40:52.206Z,1008.45
2018-01-22T07:41:52.196Z,1008.45
2018-01-22T07:42:52.185Z,1008.40
2018-01-22T07:43:52.175Z,1008.40
2018-01-22T07:44:52.167Z,1008.43
2018-01-22T07:45:52.156Z,1008.47
2018-01-22T07:46:52.148Z,1008.46
2018-01-22T07:47:52.138Z,1008.52
2018-01-22T07:48:52.129Z,1008.52
2018-01-22T07:49:52.118Z,1008.48
2018-01-22T07:50:52.114Z,1008.41
2018-01-22T07:51:52.103Z,1008.44
2018-01-22T07:52:52.090Z,1008.44
2018-01-22T07:53:52.081Z,1008.42
2018-01-22T07:54:52.070Z,1008.42
2018-01-22T07:55:52.062Z,1008.39
2018-01-22T07:56:52.057Z,1008.39
2018-01-22T07:57:52.039Z,1008.39
2018-01-22T07:58:52.034Z,1008.36
2018-01-22T07:59:52.023Z,1008.32
2018-01-22T08:00:52.015Z,1008.35
2018-01-22T08:01:52.007Z,1008.28
2018-01-22T08:02:51.993Z,1008.29
2018-01-22T08:03:51.987Z,1008.31
2018-01-22T08:04:51.984Z,1008.27
2018-01-22T08:05:51.967Z,1008.33
2018-01-22T08:06:51.958Z,1008.28
2018-01-22T08:07:51.948Z,1008.30
2018-01-22T08:08:51.940Z,1008.34
2018-01-22T08:09:51.933Z,1008.33
2018-01-22T08:10:51.920Z,1008.31
2018-01-22T08:11:51.911Z,1008.27
2018-01-22T08:12:51.904Z,1008.25
2018-01-22T08:13:51.892Z,1008.26
2018-01-22T08:14:51.882Z,1008.24
2018-01-22T08:15:51.873Z,1008.25
2018-01-22T08:16:51.864Z,1008.24
2018-01-22T08:17:51.859Z,1008.24
2018-01-22T08:18:51.845Z,1008.25
2018-01-22T08:19:51.835Z,1008.26
2018-01-22T08:20:51.829Z,1008.25
2018-01-22T08:21:51.816Z,1008.29
2018-01-22T08:22:51.813Z,1008.23
2018-01-22T08:23:51.850Z,1008.21
2018-01-22T08:24:51.788Z,1008.17
2018-01-22T08:25:51.779Z,1008.17
2018-01-22T08:26:51.775Z,1008.17
2018-01-22T08:27:51.760Z,1008.14
2018-01-22T08:28:51.756Z,1008.16
2018-01-22T08:29:51.743Z,1008.12
2018-01-22T08:30:51.734Z,1008.09
2018-01-22T08:31:51.728Z,1008.05
2018-01-22T08:32:51.716Z,1007.99
2018-01-22T08:33:51.706Z,1007.98
2018-01-22T08:34:51.702Z,1007.92
2018-01-22T08:35:51.685Z,1007.90
2018-01-22T08:36:51.680Z,1007.83
2018-01-22T08:37:51.672Z,1007.79
2018-01-22T08:38:51.660Z,1007.71
2018-01-22T08:39:51.663Z,1007.77
2018-01-22T08:40:51.641Z,1007.78
2018-01-22T08:41:51.635Z,1007.82
2018-01-22T08:42:51.625Z,1007.77
2018-01-22T08:43:51.617Z,1007.81
2018-01-22T08:44:51.611Z,1007.76
2018-01-22T08:45:51.601Z,1007.80
2018-01-22T08:46:51.590Z,1007.79
2018-01-22T08:47:51.587Z,1007.81
2018-01-22T08:48:51.569Z,1007.78
2018-01-22T08:49:51.558Z,1007.82
2018-01-22T08:50:51.550Z,1007.80
2018-01-22T08:51:51.547Z,1007.90
2018-01-22T08:52:51.535Z,1007.92
2018-01-22T08:53:51.524Z,1007.96
2018-01-22T08:54:51.512Z,1007.89
2018-01-22T08:55:51.503Z,1007.90
2018-01-22T08:56:51.496Z,1007.90
2018-01-22T08:57:51.483Z,1007.84
2018-01-22T08:58:51.476Z,1007.84
2018-01-22T08:59:51.479Z,1007.82
2018-01-22T09:00:51.457Z,1007.86
2018-01-22T09:01:51.448Z,1007.87
2018-01-22T09:02:51.442Z,1007.86
2018-01-22T09:03:51.431Z,1007.87
2018-01-22T09:04:51.422Z,1007.92
2018-01-22T09:05:51.414Z,1007.92
2018-01-22T09:06:51.403Z,1007.81
2018-01-22T09:07:51.398Z,1007.82
2018-01-22T09:08:51.385Z,1007.76
2018-01-22T09:09:51.375Z,1007.73
2018-01-22T09:10:51.366Z,1007.72
2018-01-22T09:11:51.358Z,1007.73
2018-01-22T09:12:51.352Z,1007.74
2018-01-22T09:13:51.339Z,1007.75
2018-01-22T09:14:51.331Z,1007.75
2018-01-22T09:15:51.322Z,1007.79
2018-01-22T09:16:51.314Z,1007.75
2018-01-22T09:17:51.310Z,1007.76
2018-01-22T09:18:51.295Z,1007.73
2018-01-22T09:19:51.285Z,1007.70
2018-01-22T09:20:51.281Z,1007.69
2018-01-22T09:21:51.271Z,1007.69
2018-01-22T09:22:51.263Z,1007.70
2018-01-22T09:24:05.811Z,1007.67
2018-01-22T09:25:05.778Z,1007.70
2018-01-22T09:26:59.175Z,1007.73
2018-01-22T09:27:59.144Z,1007.80
2018-01-22T09:29:52.525Z,1007.76
2018-01-22T09:30:52.514Z,1007.73
2018-01-22T09:32:45.907Z,1007.72
2018-01-22T09:33:45.876Z,1007.70
2018-01-22T09:34:45.904Z,1007.67
2018-01-22T09:35:45.858Z,1007.64
2018-01-22T09:36:45.849Z,1007.60
2018-01-22T09:37:45.842Z,1007.58
2018-01-22T09:38:45.831Z,1007.57
2018-01-22T09:39:45.823Z,1007.56
2018-01-22T09:40:45.816Z,1007.59
2018-01-22T09:41:45.811Z,1007.56
2018-01-22T09:42:45.799Z,1007.58
2018-01-22T09:43:45.790Z,1007.57
2018-01-22T09:44:45.780Z,1007.56
2018-01-22T09:45:45.772Z,1007.55
2018-01-22T09:46:45.766Z,1007.61
2018-01-22T09:47:45.758Z,1007.65
2018-01-22T09:48:45.745Z,1007.63
2018-01-22T09:49:45.737Z,1007.64
2018-01-22T09:50:45.729Z,1007.60
2018-01-22T09:51:45.724Z,1007.60
2018-01-22T09:52:45.711Z,1007.49
2018-01-22T09:53:45.709Z,1007.49
2018-01-22T09:54:45.696Z,1007.52
2018-01-22T09:55:45.686Z,1007.51
2018-01-22T09:56:45.679Z,1007.49
2018-01-22T09:57:45.668Z,1007.51
2018-01-22T09:58:45.661Z,1007.53
2018-01-22T09:59:45.652Z,1007.55
2018-01-22T10:00:45.644Z,1007.55
2018-01-22T10:01:45.638Z,1007.46
2018-01-22T10:02:45.628Z,1007.49
2018-01-22T10:03:45.618Z,1007.47
2018-01-22T10:04:45.610Z,1007.44
2018-01-22T10:05:45.601Z,1007.46
2018-01-22T10:06:45.596Z,1007.39
2018-01-22T10:07:45.585Z,1007.40
2018-01-22T10:08:45.583Z,1007.37
2018-01-22T10:09:45.568Z,1007.38
2018-01-22T10:10:45.561Z,1007.36
2018-01-22T10:11:45.550Z,1007.29
2018-01-22T10:12:45.543Z,1007.33
2018-01-22T10:13:45.538Z,1007.29
2018-01-22T10:14:45.528Z,1007.22
2018-01-22T10:15:45.520Z,1007.27
2018-01-22T10:16:45.512Z,1007.19
2018-01-22T10:17:45.501Z,1007.25
2018-01-22T10:18:45.496Z,1007.29
2018-01-22T10:19:45.484Z,1007.27
2018-01-22T10:20:45.476Z,1007.28
2018-01-22T10:21:45.470Z,1007.27
2018-01-22T10:22:45.465Z,1007.25
2018-01-22T10:23:45.454Z,1007.29
2018-01-22T10:24:45.444Z,1007.32
2018-01-22T10:25:45.437Z,1007.27
2018-01-22T10:26:45.438Z,1007.31
2018-01-22T10:27:45.419Z,1007.32
2018-01-22T10:28:45.410Z,1007.37
2018-01-22T10:29:45.404Z,1007.39
2018-01-22T10:30:45.395Z,1007.30
2018-01-22T10:31:45.394Z,1007.31
2018-01-22T10:32:45.376Z,1007.33
2018-01-22T10:33:45.368Z,1007.29
2018-01-22T10:34:45.361Z,1007.29
2018-01-22T10:35:45.352Z,1007.29
2018-01-22T10:36:45.345Z,1007.25
2018-01-22T10:37:45.343Z,1007.26
2018-01-22T10:38:45.331Z,1007.19
2018-01-22T10:39:45.325Z,1007.18
2018-01-22T10:40:45.310Z,1007.25
2018-01-22T10:41:45.304Z,1007.28
2018-01-22T10:42:45.297Z,1007.20
2018-01-22T10:43:45.287Z,1007.25
2018-01-22T10:44:45.273Z,1007.23
2018-01-22T10:45:45.276Z,1007.20
2018-01-22T10:46:45.264Z,1007.16
2018-01-22T10:47:45.254Z,1007.15
2018-01-22T10:48:45.246Z,1007.10
2018-01-22T10:49:45.242Z,1007.11
2018-01-22T10:50:45.232Z,1007.07
2018-01-22T10:51:45.222Z,1007.02
2018-01-22T10:52:45.216Z,1007.06
2018-01-22T10:53:45.207Z,1007.00
2018-01-22T10:54:45.199Z,1007.00
2018-01-22T10:55:45.190Z,1007.01
2018-01-22T10:56:45.184Z,1006.99
2018-01-22T10:57:45.176Z,1007.00
2018-01-22T10:58:45.167Z,1006.95
2018-01-22T10:59:45.156Z,1006.95
2018-01-22T11:00:45.150Z,1006.91
2018-01-22T11:01:45.141Z,1006.89
2018-01-22T11:02:45.135Z,1006.92
2018-01-22T11:03:45.131Z,1006.88
2018-01-22T11:04:45.118Z,1006.87
2018-01-22T11:05:45.119Z,1006.87
2018-01-22T11:06:45.103Z,1006.83
2018-01-22T11:07:45.094Z,1006.78
2018-01-22T11:08:45.084Z,1006.73
2018-01-22T11:09:45.078Z,1006.69
2018-01-22T11:10:45.069Z,1006.68
2018-01-22T11:11:45.061Z,1006.63
2018-01-22T11:12:45.053Z,1006.61
2018-01-22T11:13:45.047Z,1006.58
2018-01-22T11:14:45.037Z,1006.52
2018-01-22T11:15:45.029Z,1006.55
2018-01-22T11:16:45.023Z,1006.48
2018-01-22T11:17:45.026Z,1006.46
2018-01-22T11:18:45.009Z,1006.44
2018-01-22T11:19:45.006Z,1006.39
2018-01-22T11:20:44.989Z,1006.38
2018-01-22T11:21:44.984Z,1006.43
2018-01-22T11:22:44.975Z,1006.36
2018-01-22T11:23:44.964Z,1006.34
2018-01-22T11:24:44.957Z,1006.37
2018-01-22T11:25:44.948Z,1006.41
2018-01-22T11:26:44.942Z,1006.41
2018-01-22T11:27:44.932Z,1006.43
2018-01-22T11:28:44.925Z,1006.44
2018-01-22T11:29:44.916Z,1006.46
2018-01-22T11:30:44.909Z,1006.48
2018-01-22T11:31:44.900Z,1006.46
2018-01-22T11:32:44.892Z,1006.45
2018-01-22T11:33:44.883Z,1006.44
2018-01-22T11:34:44.878Z,1006.37
2018-01-22T11:35:44.867Z,1006.37
2018-01-22T11:36:44.860Z,1006.34
2018-01-22T11:37:44.854Z,1006.39
2018-01-22T11:38:44.899Z,1006.33
2018-01-22T11:39:44.836Z,1006.28
2018-01-22T11:40:44.865Z,1006.29
2018-01-22T11:41:44.821Z,1006.27
2018-01-22T11:42:44.813Z,1006.20
2018-01-22T11:43:44.804Z,1006.17
2018-01-22T11:44:44.797Z,1006.13
2018-01-22T11:45:44.787Z,1006.06
2018-01-22T11:46:44.784Z,1006.11
2018-01-22T11:47:44.772Z,1006.09
2018-01-22T11:48:44.765Z,1006.10
2018-01-22T11:49:44.757Z,1006.12
2018-01-22T11:50:44.749Z,1006.18
2018-01-22T11:51:44.741Z,1006.14
2018-01-22T11:52:44.732Z,1006.16
2018-01-22T11:53:44.725Z,1006.14
2018-01-22T11:54:44.721Z,1006.15
2018-01-22T11:55:44.705Z,1006.19
2018-01-22T11:56:44.702Z,1006.15
2018-01-22T11:57:44.696Z,1006.13
2018-01-22T11:58:44.686Z,1006.13
2018-01-22T11:59:44.685Z,1006.12
2018-01-22T12:00:44.669Z,1006.04
2018-01-22T12:01:44.662Z,1006.01
2018-01-22T12:02:44.654Z,1006.02
2018-01-22T12:03:44.645Z,1006.01
2018-01-22T12:04:44.637Z,1006.01
2018-01-22T12:05:44.630Z,1006.00
2018-01-22T12:06:44.628Z,1005.99
2018-01-22T12:07:44.613Z,1006.00
2018-01-22T12:08:44.605Z,1005.99